<?xml version="1.0" encoding="UTF-8" standalone="no" ?>
<gpx xmlns="http://www.topografix.com/GPX/1/1" xmlns:xsi="http://www.w3.org/2001/XMLSchema-instance" xsi:schemaLocation="http://www.topografix.com/GPX/1/1 http://www.topografix.com/GPX/1/1/gpx.xsd" version="1.1" creator="VisuGPX - https://www.visugpx.com">
  <metadata>
    <name>StCrespinMoine_PierreEcuelleSerpillette_9-21km</name>
    <desc><![CDATA[gnerando idor:7269162_9400780_9395508]]></desc>
  </metadata>
  <trk>
    <name><![CDATA[StCrepinMoine_PierreEcuelleSerpillette_20.7km-7269162]]></name>
    <extensions>
      <line xmlns="http://www.topografix.com/GPX/gpx_style/0/2">
        <color>0000FF</color>
        <width>4</width>
      </line>
    </extensions>
    <trkseg>
      <trkpt lat="47.09928" lon="-1.18678">
        <ele>74</ele>
        <time>2023-11-12T16:10:24Z</time>
      </trkpt>
      <trkpt lat="47.09943" lon="-1.18965">
        <ele>70</ele>
        <time>2023-11-12T16:14:45Z</time>
      </trkpt>
      <trkpt lat="47.10022" lon="-1.19236">
        <ele>63</ele>
        <time>2023-11-12T16:19:13Z</time>
      </trkpt>
      <trkpt lat="47.10121" lon="-1.19446">
        <ele>68</ele>
        <time>2023-11-12T16:23:05Z</time>
      </trkpt>
      <trkpt lat="47.10109" lon="-1.19639">
        <ele>68</ele>
        <time>2023-11-12T16:26:01Z</time>
      </trkpt>
      <trkpt lat="47.10118" lon="-1.19815">
        <ele>66</ele>
        <time>2023-11-12T16:28:42Z</time>
      </trkpt>
      <trkpt lat="47.10051" lon="-1.19901">
        <ele>64</ele>
        <time>2023-11-12T16:30:40Z</time>
      </trkpt>
      <trkpt lat="47.10133" lon="-1.20248">
        <ele>63</ele>
        <time>2023-11-12T16:36:14Z</time>
      </trkpt>
      <trkpt lat="47.0996" lon="-1.2051">
        <ele>56</ele>
        <time>2023-11-12T16:41:46Z</time>
      </trkpt>
      <trkpt lat="47.09943" lon="-1.20648">
        <ele>50</ele>
        <time>2023-11-12T16:43:53Z</time>
      </trkpt>
      <trkpt lat="47.09811" lon="-1.20875">
        <ele>33</ele>
        <time>2023-11-12T16:48:24Z</time>
      </trkpt>
      <trkpt lat="47.09806" lon="-1.21171">
        <ele>30</ele>
        <time>2023-11-12T16:52:53Z</time>
      </trkpt>
      <trkpt lat="47.09882" lon="-1.2133">
        <ele>31</ele>
        <time>2023-11-12T16:55:50Z</time>
      </trkpt>
      <trkpt lat="47.0992" lon="-1.21506">
        <ele>29</ele>
        <time>2023-11-12T16:58:37Z</time>
      </trkpt>
      <trkpt lat="47.09981" lon="-1.21836">
        <ele>34</ele>
        <time>2023-11-12T17:03:48Z</time>
      </trkpt>
      <trkpt lat="47.0999" lon="-1.21995">
        <ele>29</ele>
        <time>2023-11-12T17:06:13Z</time>
      </trkpt>
      <trkpt lat="47.10028" lon="-1.22077">
        <ele>30</ele>
        <time>2023-11-12T17:07:43Z</time>
      </trkpt>
      <trkpt lat="47.10025" lon="-1.22163">
        <ele>29</ele>
        <time>2023-11-12T17:09:01Z</time>
      </trkpt>
      <trkpt lat="47.10048" lon="-1.22287">
        <ele>30</ele>
        <time>2023-11-12T17:10:58Z</time>
      </trkpt>
      <trkpt lat="47.1008" lon="-1.22343">
        <ele>31</ele>
        <time>2023-11-12T17:12:05Z</time>
      </trkpt>
      <trkpt lat="47.10071" lon="-1.22459">
        <ele>28</ele>
        <time>2023-11-12T17:13:51Z</time>
      </trkpt>
      <trkpt lat="47.10089" lon="-1.22622">
        <ele>28</ele>
        <time>2023-11-12T17:16:21Z</time>
      </trkpt>
      <trkpt lat="47.10098" lon="-1.22892">
        <ele>32</ele>
        <time>2023-11-12T17:20:26Z</time>
      </trkpt>
      <trkpt lat="47.10054" lon="-1.23304">
        <ele>38</ele>
        <time>2023-11-12T17:26:45Z</time>
      </trkpt>
      <trkpt lat="47.10229" lon="-1.23394">
        <ele>56</ele>
        <time>2023-11-12T17:30:52Z</time>
      </trkpt>
      <trkpt lat="47.10264" lon="-1.23334">
        <ele>56</ele>
        <time>2023-11-12T17:32:04Z</time>
      </trkpt>
      <trkpt lat="47.10518" lon="-1.2348">
        <ele>63</ele>
        <time>2023-11-12T17:38:08Z</time>
      </trkpt>
      <trkpt lat="47.10323" lon="-1.23716">
        <ele>58</ele>
        <time>2023-11-12T17:43:45Z</time>
      </trkpt>
      <trkpt lat="47.10212" lon="-1.23948">
        <ele>54</ele>
        <time>2023-11-12T17:48:03Z</time>
      </trkpt>
      <trkpt lat="47.10115" lon="-1.24218">
        <ele>48</ele>
        <time>2023-11-12T17:52:40Z</time>
      </trkpt>
      <trkpt lat="47.0999" lon="-1.2451">
        <ele>41</ele>
        <time>2023-11-12T17:57:54Z</time>
      </trkpt>
      <trkpt lat="47.09841" lon="-1.24574">
        <ele>41</ele>
        <time>2023-11-12T18:01:21Z</time>
      </trkpt>
      <trkpt lat="47.09841" lon="-1.24501">
        <ele>44</ele>
        <time>2023-11-12T18:02:27Z</time>
      </trkpt>
      <trkpt lat="47.09677" lon="-1.24416">
        <ele>42</ele>
        <time>2023-11-12T18:06:19Z</time>
      </trkpt>
      <trkpt lat="47.09534" lon="-1.24295">
        <ele>34</ele>
        <time>2023-11-12T18:09:59Z</time>
      </trkpt>
      <trkpt lat="47.09502" lon="-1.24051">
        <ele>31</ele>
        <time>2023-11-12T18:13:45Z</time>
      </trkpt>
      <trkpt lat="47.09513" lon="-1.24038">
        <ele>31</ele>
        <time>2023-11-12T18:14:04Z</time>
      </trkpt>
      <trkpt lat="47.09619" lon="-1.23935">
        <ele>32</ele>
        <time>2023-11-12T18:16:54Z</time>
      </trkpt>
      <trkpt lat="47.09648" lon="-1.23677">
        <ele>30</ele>
        <time>2023-11-12T18:20:51Z</time>
      </trkpt>
      <trkpt lat="47.09648" lon="-1.23441">
        <ele>30</ele>
        <time>2023-11-12T18:24:25Z</time>
      </trkpt>
      <trkpt lat="47.0973" lon="-1.23364">
        <ele>31</ele>
        <time>2023-11-12T18:26:35Z</time>
      </trkpt>
      <trkpt lat="47.09768" lon="-1.2336">
        <ele>34</ele>
        <time>2023-11-12T18:27:26Z</time>
      </trkpt>
      <trkpt lat="47.09817" lon="-1.23304">
        <ele>32</ele>
        <time>2023-11-12T18:28:49Z</time>
      </trkpt>
      <trkpt lat="47.09911" lon="-1.2333">
        <ele>37</ele>
        <time>2023-11-12T18:30:57Z</time>
      </trkpt>
      <trkpt lat="47.09975" lon="-1.2324">
        <ele>27</ele>
        <time>2023-11-12T18:32:55Z</time>
      </trkpt>
      <trkpt lat="47.10036" lon="-1.23347">
        <ele>41</ele>
        <time>2023-11-12T18:35:02Z</time>
      </trkpt>
      <trkpt lat="47.10089" lon="-1.22961">
        <ele>31</ele>
        <time>2023-11-12T18:40:59Z</time>
      </trkpt>
      <trkpt lat="47.10077" lon="-1.22386">
        <ele>30</ele>
        <time>2023-11-12T18:49:42Z</time>
      </trkpt>
      <trkpt lat="47.10074" lon="-1.22308">
        <ele>32</ele>
        <time>2023-11-12T18:50:53Z</time>
      </trkpt>
      <trkpt lat="47.10007" lon="-1.22034">
        <ele>29</ele>
        <time>2023-11-12T18:55:17Z</time>
      </trkpt>
      <trkpt lat="47.09896" lon="-1.21386">
        <ele>32</ele>
        <time>2023-11-12T19:05:24Z</time>
      </trkpt>
      <trkpt lat="47.09803" lon="-1.21124">
        <ele>30</ele>
        <time>2023-11-12T19:09:53Z</time>
      </trkpt>
      <trkpt lat="47.09823" lon="-1.20836">
        <ele>35</ele>
        <time>2023-11-12T19:14:16Z</time>
      </trkpt>
      <trkpt lat="47.09882" lon="-1.20763">
        <ele>43</ele>
        <time>2023-11-12T19:15:59Z</time>
      </trkpt>
      <trkpt lat="47.09814" lon="-1.20472">
        <ele>41</ele>
        <time>2023-11-12T19:20:38Z</time>
      </trkpt>
      <trkpt lat="47.09855" lon="-1.20343">
        <ele>43</ele>
        <time>2023-11-12T19:22:48Z</time>
      </trkpt>
      <trkpt lat="47.09835" lon="-1.20197">
        <ele>40</ele>
        <time>2023-11-12T19:25:03Z</time>
      </trkpt>
      <trkpt lat="47.09876" lon="-1.20051">
        <ele>50</ele>
        <time>2023-11-12T19:27:26Z</time>
      </trkpt>
      <trkpt lat="47.09762" lon="-1.1997">
        <ele>36</ele>
        <time>2023-11-12T19:30:15Z</time>
      </trkpt>
      <trkpt lat="47.09636" lon="-1.1945">
        <ele>35</ele>
        <time>2023-11-12T19:38:37Z</time>
      </trkpt>
      <trkpt lat="47.09677" lon="-1.1936">
        <ele>38</ele>
        <time>2023-11-12T19:40:15Z</time>
      </trkpt>
      <trkpt lat="47.09604" lon="-1.19356">
        <ele>32</ele>
        <time>2023-11-12T19:41:53Z</time>
      </trkpt>
      <trkpt lat="47.09584" lon="-1.18995">
        <ele>31</ele>
        <time>2023-11-12T19:47:22Z</time>
      </trkpt>
      <trkpt lat="47.09627" lon="-1.18725">
        <ele>41</ele>
        <time>2023-11-12T19:51:34Z</time>
      </trkpt>
      <trkpt lat="47.09689" lon="-1.18716">
        <ele>51</ele>
        <time>2023-11-12T19:52:57Z</time>
      </trkpt>
      <trkpt lat="47.09712" lon="-1.18643">
        <ele>54</ele>
        <time>2023-11-12T19:54:10Z</time>
      </trkpt>
      <trkpt lat="47.0987" lon="-1.18643">
        <ele>70</ele>
        <time>2023-11-12T19:57:41Z</time>
      </trkpt>
      <trkpt lat="47.09931" lon="-1.18802">
        <ele>72</ele>
        <time>2023-11-12T20:00:26Z</time>
      </trkpt>
      <trkpt lat="47.0999" lon="-1.18661">
        <ele>75</ele>
        <time>2023-11-12T20:02:57Z</time>
      </trkpt>
      <trkpt lat="47.10109" lon="-1.18682">
        <ele>74</ele>
        <time>2023-11-12T20:05:37Z</time>
      </trkpt>
      <trkpt lat="47.10139" lon="-1.18798">
        <ele>73</ele>
        <time>2023-11-12T20:07:29Z</time>
      </trkpt>
      <trkpt lat="47.10261" lon="-1.18815">
        <ele>72</ele>
        <time>2023-11-12T20:10:13Z</time>
      </trkpt>
      <trkpt lat="47.10402" lon="-1.18905">
        <ele>76</ele>
        <time>2023-11-12T20:13:38Z</time>
      </trkpt>
      <trkpt lat="47.10606" lon="-1.18918">
        <ele>83</ele>
        <time>2023-11-12T20:18:11Z</time>
      </trkpt>
      <trkpt lat="47.10653" lon="-1.18884">
        <ele>83</ele>
        <time>2023-11-12T20:19:20Z</time>
      </trkpt>
      <trkpt lat="47.11024" lon="-1.18626">
        <ele>84</ele>
        <time>2023-11-12T20:28:28Z</time>
      </trkpt>
      <trkpt lat="47.11097" lon="-1.1848">
        <ele>85</ele>
        <time>2023-11-12T20:31:13Z</time>
      </trkpt>
      <trkpt lat="47.11249" lon="-1.18412">
        <ele>83</ele>
        <time>2023-11-12T20:34:45Z</time>
      </trkpt>
      <trkpt lat="47.11348" lon="-1.18596">
        <ele>82</ele>
        <time>2023-11-12T20:38:18Z</time>
      </trkpt>
      <trkpt lat="47.1152" lon="-1.18498">
        <ele>86</ele>
        <time>2023-11-12T20:42:24Z</time>
      </trkpt>
      <trkpt lat="47.11932" lon="-1.18605">
        <ele>90</ele>
        <time>2023-11-12T20:51:42Z</time>
      </trkpt>
      <trkpt lat="47.12084" lon="-1.18652">
        <ele>87</ele>
        <time>2023-11-12T20:55:10Z</time>
      </trkpt>
      <trkpt lat="47.12101" lon="-1.1839">
        <ele>88</ele>
        <time>2023-11-12T20:59:09Z</time>
      </trkpt>
      <trkpt lat="47.11999" lon="-1.18326">
        <ele>90</ele>
        <time>2023-11-12T21:01:37Z</time>
      </trkpt>
      <trkpt lat="47.11976" lon="-1.17948">
        <ele>89</ele>
        <time>2023-11-12T21:07:21Z</time>
      </trkpt>
      <trkpt lat="47.1192" lon="-1.17755">
        <ele>87</ele>
        <time>2023-11-12T21:10:32Z</time>
      </trkpt>
      <trkpt lat="47.11701" lon="-1.17892">
        <ele>88</ele>
        <time>2023-11-12T21:15:49Z</time>
      </trkpt>
      <trkpt lat="47.1136" lon="-1.17455">
        <ele>89</ele>
        <time>2023-11-12T21:25:53Z</time>
      </trkpt>
      <trkpt lat="47.11141" lon="-1.17004">
        <ele>90</ele>
        <time>2023-11-12T21:34:16Z</time>
      </trkpt>
      <trkpt lat="47.10948" lon="-1.1709">
        <ele>90</ele>
        <time>2023-11-12T21:38:45Z</time>
      </trkpt>
      <trkpt lat="47.10805" lon="-1.17081">
        <ele>87</ele>
        <time>2023-11-12T21:41:56Z</time>
      </trkpt>
      <trkpt lat="47.10533" lon="-1.17141">
        <ele>77</ele>
        <time>2023-11-12T21:48:03Z</time>
      </trkpt>
      <trkpt lat="47.10445" lon="-1.16983">
        <ele>79</ele>
        <time>2023-11-12T21:51:09Z</time>
      </trkpt>
      <trkpt lat="47.10366" lon="-1.16983">
        <ele>76</ele>
        <time>2023-11-12T21:52:54Z</time>
      </trkpt>
      <trkpt lat="47.1032" lon="-1.17068">
        <ele>75</ele>
        <time>2023-11-12T21:54:33Z</time>
      </trkpt>
      <trkpt lat="47.10185" lon="-1.17163">
        <ele>70</ele>
        <time>2023-11-12T21:57:53Z</time>
      </trkpt>
      <trkpt lat="47.10048" lon="-1.17257">
        <ele>63</ele>
        <time>2023-11-12T22:01:15Z</time>
      </trkpt>
      <trkpt lat="47.09995" lon="-1.17017">
        <ele>57</ele>
        <time>2023-11-12T22:05:04Z</time>
      </trkpt>
      <trkpt lat="47.09993" lon="-1.16811">
        <ele>69</ele>
        <time>2023-11-12T22:08:11Z</time>
      </trkpt>
      <trkpt lat="47.09905" lon="-1.16901">
        <ele>68</ele>
        <time>2023-11-12T22:10:34Z</time>
      </trkpt>
      <trkpt lat="47.09797" lon="-1.16927">
        <ele>70</ele>
        <time>2023-11-12T22:13:00Z</time>
      </trkpt>
      <trkpt lat="47.09589" lon="-1.17193">
        <ele>57</ele>
        <time>2023-11-12T22:19:08Z</time>
      </trkpt>
      <trkpt lat="47.09423" lon="-1.17356">
        <ele>34</ele>
        <time>2023-11-12T22:23:34Z</time>
      </trkpt>
      <trkpt lat="47.09408" lon="-1.17618">
        <ele>33</ele>
        <time>2023-11-12T22:27:33Z</time>
      </trkpt>
      <trkpt lat="47.09531" lon="-1.17785">
        <ele>35</ele>
        <time>2023-11-12T22:31:17Z</time>
      </trkpt>
      <trkpt lat="47.09589" lon="-1.17953">
        <ele>33</ele>
        <time>2023-11-12T22:34:08Z</time>
      </trkpt>
      <trkpt lat="47.09733" lon="-1.17983">
        <ele>41</ele>
        <time>2023-11-12T22:37:22Z</time>
      </trkpt>
      <trkpt lat="47.10191" lon="-1.17871">
        <ele>73</ele>
        <time>2023-11-12T22:47:42Z</time>
      </trkpt>
      <trkpt lat="47.10229" lon="-1.17991">
        <ele>73</ele>
        <time>2023-11-12T22:49:42Z</time>
      </trkpt>
      <trkpt lat="47.10185" lon="-1.18197">
        <ele>64</ele>
        <time>2023-11-12T22:52:58Z</time>
      </trkpt>
      <trkpt lat="47.1013" lon="-1.18317">
        <ele>61</ele>
        <time>2023-11-12T22:55:09Z</time>
      </trkpt>
      <trkpt lat="47.09981" lon="-1.18476">
        <ele>70</ele>
        <time>2023-11-12T22:59:15Z</time>
      </trkpt>
      <trkpt lat="47.09975" lon="-1.18708">
        <ele>74</ele>
        <time>2023-11-12T23:02:46Z</time>
      </trkpt>
      <trkpt lat="47.09928" lon="-1.18682">
        <ele>74</ele>
        <time>2023-11-12T23:03:53Z</time>
      </trkpt>
    </trkseg>
  </trk>
</gpx>